Independence of the Seas — C6WW4 — position and weather

sailwx.info

Track history (hours):
 
Tides and Currents Weather Stations Pressure Air Temp Water Temp Dewpoint Dewpoint Depression Visibility Wind Speed Wind Dir Waves Ship Positions

Independence of the Seas

Last reported at 2016-May-05 04:11 UTC. Time now 2016-May-05 06:45 UTC.
Position N 18°12' W 064°52'.

Length 339 m; draft 8.8 m.

Type: Passenger vessel. MMSI: 309374000.

Date/timePositionNaut miles runAvg speedWind from/ knotsBaromVisibWave heightAir tempDewpointWater temp
2016-May-05 04:11N 18°12' W 064°52'7012.5
2016-May-04 22:33N 18°30' W 066°03'4 4.3
2016-May-04 21:33N 18°28' W 066°07'0 0.0
2016-May-04 20:30N 18°28' W 066°07'0 0.0
2016-May-04 19:33N 18°28' W 066°07'0 0.0
2016-May-04 18:34N 18°28' W 066°07'0 0.0
2016-May-04 17:32N 18°28' W 066°07'0 0.0
2016-May-04 16:30N 18°28' W 066°07'0 0.0
2016-May-04 15:33N 18°28' W 066°07'0 0.0
2016-May-04 14:27N 18°28' W 066°07'0 0.0
2016-May-04 13:34N 18°28' W 066°07'2 1.5
2016-May-04 12:34N 18°29' W 066°08'  
2016-May-01 22:33N 26°10' W 079°48'1313.4
2016-May-01 21:33N 26°07' W 080°02'4 4.2
2016-May-01 20:33N 26°05' W 080°07'0 0.0
2016-May-01 19:33N 26°05' W 080°07'0 0.0
2016-May-01 18:33N 26°05' W 080°07'0 0.0
2016-May-01 17:33N 26°05' W 080°07'0 0.0
2016-May-01 16:24N 26°05' W 080°07'0 0.0
2016-May-01 15:24N 26°05' W 080°07'0 0.0
2016-May-01 14:27N 26°05' W 080°07'0 0.0
2016-May-01 13:27N 26°05' W 080°07'0 0.0
2016-May-01 12:30N 26°05' W 080°07'0 0.0
2016-May-01 11:30N 26°05' W 080°07'0 0.2
2016-May-01 10:33N 26°06' W 080°07'6 6.2
2016-May-01 09:33N 26°06' W 080°00'6 5.5
2016-May-01 08:33N 26°07' W 079°54'6 5.8
2016-May-01 07:33N 26°08' W 079°48'5 5.4
2016-May-01 06:33N 26°10' W 079°42'5 4.8
2016-May-01 05:33N 26°10' W 079°36'4 4.4
2016-May-01 04:33N 26°10' W 079°32'5 4.7
2016-May-01 03:32N 26°10' W 079°26'69 6.9
2016-Apr-30 17:32N 26°07' W 078°09'86 2.0
2016-Apr-28 22:25N 26°14' W 079°45'1012.0
2016-Apr-28 21:33N 26°09' W 079°55'1111.3
2016-Apr-28 20:33N 26°06' W 080°07'0 0.3
2016-Apr-28 19:31N 26°05' W 080°07'0 0.0
2016-Apr-28 18:31N 26°05' W 080°07'0 0.0
2016-Apr-28 17:33N 26°05' W 080°07'0 0.0
2016-Apr-28 16:33N 26°05' W 080°07'0 0.0
2016-Apr-28 15:33N 26°05' W 080°07'0 0.0
2016-Apr-28 14:33N 26°05' W 080°07'0 0.0
2016-Apr-28 13:33N 26°05' W 080°07'0 0.0
2016-Apr-28 12:33N 26°05' W 080°07'0 0.0
2016-Apr-28 11:33N 26°05' W 080°07'4 3.7
2016-Apr-28 10:33N 26°06' W 080°03'1515.4
2016-Apr-28 09:34N 25°50' W 079°59'50114.7
2016-Apr-26 23:33N 20°31' W 086°59'2 2.2
2016-Apr-26 22:33N 20°29' W 086°59'0 0.0
2016-Apr-26 21:33N 20°29' W 086°59'0 0.0
2016-Apr-26 20:33N 20°29' W 086°59'0 0.0
2016-Apr-26 19:27N 20°29' W 086°59'0 0.0
2016-Apr-26 18:33N 20°29' W 086°59'0 0.0
2016-Apr-26 17:33N 20°29' W 086°59'0 0.0
2016-Apr-26 16:33N 20°29' W 086°59'0 0.0
2016-Apr-26 15:33N 20°29' W 086°59'0 0.0
2016-Apr-26 14:33N 20°29' W 086°59'0 0.0
2016-Apr-26 13:33N 20°29' W 086°59'2 2.1
2016-Apr-26 12:34N 20°28' W 087°01'  
Track history (hours):
 
Tides and Currents Weather Stations Pressure Air Temp Water Temp Dewpoint Dewpoint Depression Visibility Wind Speed Wind Dir Waves Ship Positions

Independence of the Seas

Last reported at 2016-May-05 04:11 UTC. Time now 2016-May-05 06:45 UTC.
Position N 18°12' W 064°52'.

Length 339 m; draft 8.8 m.

Type: Passenger vessel. MMSI: 309374000.

Date/timePositionNaut miles runAvg speedWind from/ knotsBaromVisibWave heightAir tempDewpointWater temp
2016-May-05 04:11N 18°12' W 064°52'7012.5
2016-May-04 22:33N 18°30' W 066°03'4 4.3
2016-May-04 21:33N 18°28' W 066°07'0 0.0
2016-May-04 20:30N 18°28' W 066°07'0 0.0
2016-May-04 19:33N 18°28' W 066°07'0 0.0
2016-May-04 18:34N 18°28' W 066°07'0 0.0
2016-May-04 17:32N 18°28' W 066°07'0 0.0
2016-May-04 16:30N 18°28' W 066°07'0 0.0
2016-May-04 15:33N 18°28' W 066°07'0 0.0
2016-May-04 14:27N 18°28' W 066°07'0 0.0
2016-May-04 13:34N 18°28' W 066°07'2 1.5
2016-May-04 12:34N 18°29' W 066°08'  
2016-May-01 22:33N 26°10' W 079°48'1313.4
2016-May-01 21:33N 26°07' W 080°02'4 4.2
2016-May-01 20:33N 26°05' W 080°07'0 0.0
2016-May-01 19:33N 26°05' W 080°07'0 0.0
2016-May-01 18:33N 26°05' W 080°07'0 0.0
2016-May-01 17:33N 26°05' W 080°07'0 0.0
2016-May-01 16:24N 26°05' W 080°07'0 0.0
2016-May-01 15:24N 26°05' W 080°07'0 0.0
2016-May-01 14:27N 26°05' W 080°07'0 0.0
2016-May-01 13:27N 26°05' W 080°07'0 0.0
2016-May-01 12:30N 26°05' W 080°07'0 0.0
2016-May-01 11:30N 26°05' W 080°07'0 0.2
2016-May-01 10:33N 26°06' W 080°07'6 6.2
2016-May-01 09:33N 26°06' W 080°00'6 5.5
2016-May-01 08:33N 26°07' W 079°54'6 5.8
2016-May-01 07:33N 26°08' W 079°48'5 5.4
2016-May-01 06:33N 26°10' W 079°42'5 4.8
2016-May-01 05:33N 26°10' W 079°36'4 4.4
2016-May-01 04:33N 26°10' W 079°32'5 4.7
2016-May-01 03:32N 26°10' W 079°26'69 6.9
2016-Apr-30 17:32N 26°07' W 078°09'86 2.0
2016-Apr-28 22:25N 26°14' W 079°45'1012.0
2016-Apr-28 21:33N 26°09' W 079°55'1111.3
2016-Apr-28 20:33N 26°06' W 080°07'0 0.3
2016-Apr-28 19:31N 26°05' W 080°07'0 0.0
2016-Apr-28 18:31N 26°05' W 080°07'0 0.0
2016-Apr-28 17:33N 26°05' W 080°07'0 0.0
2016-Apr-28 16:33N 26°05' W 080°07'0 0.0
2016-Apr-28 15:33N 26°05' W 080°07'0 0.0
2016-Apr-28 14:33N 26°05' W 080°07'0 0.0
2016-Apr-28 13:33N 26°05' W 080°07'0 0.0
2016-Apr-28 12:33N 26°05' W 080°07'0 0.0
2016-Apr-28 11:33N 26°05' W 080°07'4 3.7
2016-Apr-28 10:33N 26°06' W 080°03'1515.4
2016-Apr-28 09:34N 25°50' W 079°59'50114.7
2016-Apr-26 23:33N 20°31' W 086°59'2 2.2
2016-Apr-26 22:33N 20°29' W 086°59'0 0.0
2016-Apr-26 21:33N 20°29' W 086°59'0 0.0
2016-Apr-26 20:33N 20°29' W 086°59'0 0.0
2016-Apr-26 19:27N 20°29' W 086°59'0 0.0
2016-Apr-26 18:33N 20°29' W 086°59'0 0.0
2016-Apr-26 17:33N 20°29' W 086°59'0 0.0
2016-Apr-26 16:33N 20°29' W 086°59'0 0.0
2016-Apr-26 15:33N 20°29' W 086°59'0 0.0
2016-Apr-26 14:33N 20°29' W 086°59'0 0.0
2016-Apr-26 13:33N 20°29' W 086°59'2 2.1
2016-Apr-26 12:34N 20°28' W 087°01'  

Dump ship's entire track history